Bei Facebook empfehlenBei Twitter postenGoogle plusPinterest

Das Wetter im Erzgebirge am 15.12.2015

Wetter und Klima am 15.12.2015 Holzhau im Erzgebirge (630m ü.NN)
Letzte gemessene Temperatur und Uhrzeit der Messung23:45:00 Uhr3.50 °C
Temperatur (Maximum / Höchstwert) und Uhrzeit der Messung13:30:00 Uhr5.40 °C
Temperatur (Minimum / Tiefstwert) und Uhrzeit der Messung01:45:000.30 °C
Errechneter Absolutwert der Temperaturschwankungen zwischen Tmin und Tmax des Tages5.10 K
Errechnete Tagesmitteltemperatur2.92396 °C
Gesamt - Niederschlag des Tages (in flüssiger Form)0.00 Liter / m²
Luftdruck (Maximum / Höchstwert) und Zeitpunkt der Messung23:30:00 Uhr1022.10 hPa
Luftdruck (Minimum / Tiefstwert) und Zeitpunkt der Messung05:45:00 Uhr1017.50 hPa
Errechneter Absolutwert der Luftdruckschwankungen des Tages4.60 hPa
Höchste gemessene Windgeschwindigkeit und Uhrzeit der Messung12:45:00 Uhr9.36 km/h
Errechnete Windhäufigkeit in Relation zu den Messwerten des Tages14.58333 %
Niedrigste Windkühle (Windchill) und Zeitpunkt der Messung00:00:00 Uhr-2.30 °C
Taupunkt (Maximum / Höchstwert) und Uhrzeit der Messung13:30:00 Uhr4.70 °C
Taupunkt (Minimum / Tiefstwert) und Uhrzeit der Messung02:00:00-0.50 °C
Anzahl der automatisch eingelesenen Messwerte 96

Detaillierte Wetter- und Klima- Messwerte für den 15.12.2015 in Holzhau im Erzgebirge (630m ü.NN)
ZeitTemperaturLuftdruckRel. LuftfeuchteWindWindrichtungWindchillTaupunktNiederschlag l/m²
23:45:003.50 °C1022.00 hPa94.00 %2.60 °C 
23:30:003.50 °C1022.10 hPa94.00 %2.60 °C 
23:15:003.50 °C1022.00 hPa94.00 %2.60 °C 
23:00:003.50 °C1021.90 hPa94.00 %2.60 °C 
22:45:003.50 °C1021.80 hPa94.00 %2.60 °C 
22:30:003.50 °C1022.00 hPa94.00 %2.60 °C 
22:15:003.50 °C1021.80 hPa94.00 %2.60 °C 
22:00:003.50 °C1021.90 hPa94.00 %2.60 °C 
21:45:003.50 °C1021.70 hPa94.00 %2.60 °C 
21:30:003.50 °C1021.60 hPa94.00 %2.60 °C 
21:15:003.60 °C1021.50 hPa94.00 %2.70 °C 
21:00:003.60 °C1021.50 hPa94.00 %2.70 °C 
20:45:003.60 °C1021.50 hPa94.00 %2.70 °C 
20:30:003.60 °C1021.60 hPa94.00 %2.70 °C 
20:15:003.60 °C1021.50 hPa94.00 %2.70 °C 
20:00:003.60 °C1021.20 hPa94.00 %2.70 °C 
19:45:003.60 °C1021.20 hPa94.00 %2.70 °C 
19:30:003.50 °C1021.30 hPa93.00 %2.50 °C 
19:15:003.50 °C1021.10 hPa93.00 %2.50 °C 
19:00:003.40 °C1020.90 hPa93.00 %2.40 °C 
18:45:003.40 °C1020.80 hPa93.00 %2.40 °C 
18:30:003.50 °C1020.60 hPa93.00 %2.50 °C 
18:15:003.50 °C1020.70 hPa93.00 %2.50 °C 
18:00:003.50 °C1020.50 hPa93.00 %2.50 °C 
17:45:003.60 °C1020.30 hPa93.00 %2.60 °C 
17:30:003.60 °C1020.10 hPa93.00 %2.60 °C 
17:15:003.80 °C1019.80 hPa93.00 %2.80 °C 
17:00:003.90 °C1019.50 hPa93.00 %2.90 °C 
16:45:003.90 °C1019.50 hPa93.00 %2.90 °C 
16:30:004.10 °C1019.60 hPa93.00 %3.10 °C 
16:15:004.30 °C1019.30 hPa93.00 %3.30 °C 
16:00:004.40 °C1019.30 hPa93.00 %3.40 °C 
15:45:004.40 °C1019.20 hPa93.00 %3.40 °C 
15:30:004.30 °C1019.10 hPa93.00 %3.30 °C 
15:15:004.40 °C1018.90 hPa93.00 %3.40 °C 
15:00:004.80 °C1018.80 hPa93.00 %3.80 °C 
14:45:005.00 °C1018.60 hPa93.00 %4.00 °C 
14:30:005.30 °C1018.60 hPa94.00 %4.40 °C 
14:15:005.30 °C1018.60 hPa94.00 %4.40 °C 
14:00:005.30 °C1018.70 hPa94.00 %5.04 km/hWNW4.40 °C4.40 °C 
13:45:005.30 °C1018.70 hPa94.00 %4.40 °C 
13:30:005.40 °C1018.60 hPa95.00 %2.52 km/hWNW5.40 °C4.70 °C 
13:15:005.40 °C1018.70 hPa95.00 %2.52 km/hWNW5.40 °C4.70 °C 
13:00:005.40 °C1018.70 hPa95.00 %4.70 °C 
12:45:005.40 °C1018.70 hPa95.00 %9.36 km/hWSW3.30 °C4.70 °C 
12:30:005.40 °C1018.70 hPa95.00 %4.70 °C 
12:15:005.30 °C1018.60 hPa95.00 %4.60 °C 
12:00:005.20 °C1018.60 hPa96.00 %4.60 °C 
11:45:005.20 °C1018.50 hPa96.00 %4.60 °C 
11:30:004.90 °C1018.60 hPa96.00 %3.24 km/hWSW4.90 °C4.30 °C 
11:15:004.80 °C1018.70 hPa96.00 %4.20 °C 
11:00:004.50 °C1018.80 hPa96.00 %3.90 °C 
10:45:004.20 °C1018.80 hPa95.00 %3.50 °C 
10:30:003.90 °C1018.70 hPa95.00 %3.20 °C 
10:15:003.60 °C1018.70 hPa96.00 %3.00 °C 
10:00:003.20 °C1018.60 hPa96.00 %2.60 °C 
09:45:002.80 °C1018.60 hPa96.00 %2.20 °C 
09:30:002.40 °C1018.50 hPa96.00 %1.80 °C 
09:15:002.10 °C1018.40 hPa96.00 %1.50 °C 
09:00:001.90 °C1018.20 hPa95.00 %1.20 °C 
08:45:001.80 °C1018.20 hPa95.00 %1.10 °C 
08:30:001.60 °C1018.40 hPa95.00 %0.90 °C 
08:15:001.50 °C1018.00 hPa95.00 %0.80 °C 
08:00:001.30 °C1017.90 hPa95.00 %0.60 °C 
07:45:001.30 °C1017.80 hPa95.00 %0.60 °C 
07:30:001.30 °C1017.90 hPa95.00 %0.60 °C 
07:15:001.20 °C1017.80 hPa95.00 %0.50 °C 
07:00:001.20 °C1017.80 hPa95.00 %0.50 °C 
06:45:001.30 °C1017.70 hPa95.00 %1.08 km/hSO1.30 °C0.60 °C 
06:30:001.20 °C1017.70 hPa95.00 %4.32 km/hOSO1.20 °C0.50 °C 
06:15:001.10 °C1017.70 hPa95.00 %0.40 °C 
06:00:001.10 °C1017.70 hPa95.00 %0.40 °C 
05:45:001.10 °C1017.50 hPa95.00 %1.80 km/hOSO1.10 °C0.40 °C 
05:30:001.10 °C1017.50 hPa95.00 %2.52 km/hO1.10 °C0.40 °C 
05:15:001.30 °C1017.80 hPa95.00 %0.60 °C 
05:00:001.50 °C1017.80 hPa95.00 %0.80 °C 
04:45:001.60 °C1017.80 hPa95.00 %0.90 °C 
04:30:001.60 °C1017.60 hPa95.00 %0.90 °C 
04:15:001.50 °C1017.70 hPa95.00 %3.24 km/hOSO1.50 °C0.80 °C 
04:00:001.50 °C1017.90 hPa95.00 %0.80 °C 
03:45:001.40 °C1017.70 hPa95.00 %0.70 °C 
03:30:001.30 °C1017.80 hPa95.00 %0.60 °C 
03:15:001.30 °C1018.10 hPa95.00 %0.60 °C 
03:00:001.00 °C1018.10 hPa95.00 %0.30 °C 
02:45:000.90 °C1018.20 hPa95.00 %0.20 °C 
02:30:000.60 °C1018.00 hPa94.00 %2.52 km/hOSO0.60 °C-0.30 °C 
02:15:000.60 °C1018.10 hPa94.00 %-0.30 °C 
02:00:000.40 °C1018.00 hPa94.00 %-0.50 °C 
01:45:000.30 °C1018.10 hPa94.00 %-0.50 °C 
01:30:000.40 °C1018.20 hPa94.00 %-0.50 °C 
01:15:000.70 °C1018.20 hPa94.00 %-0.20 °C 
01:00:000.80 °C1018.50 hPa94.00 %3.60 km/hOSO0.80 °C-0.10 °C 
00:45:000.80 °C1018.50 hPa94.00 %2.16 km/hSSO0.80 °C-0.10 °C 
00:30:000.70 °C1018.50 hPa94.00 %-0.20 °C 
00:15:000.60 °C1018.70 hPa94.00 %-0.30 °C 
00:00:000.60 °C1018.80 hPa94.00 %9.00 km/hS-2.30 °C-0.30 °C 

Permanenter Link zu dieser Seite: Wetter im Erzgebirge am 15.12.2015
Performance-Info: Die Erstellung der Seite / Statistik(en) / Tabelle(n) erforderte 5 Datenbankserver-Abfrage(n) und dauerte 95 Millisekunden. (Dieser Messwert ist von der Gesamt-Auslastung des Servers abhängig.)
Erzgebirge - Wetter | Erzgebirge - Wetter (Mobilgeräte) | Komplette Klimadatenbank